createdAt,value
2022-11-14T00:00:29.012Z,18.60
2022-11-14T00:06:02.602Z,16.53
2022-11-14T00:11:32.571Z,17.07
2022-11-14T00:16:58.534Z,16.33
2022-11-14T00:22:27.347Z,18.03
2022-11-14T00:27:57.215Z,18.87
2022-11-14T00:33:31.946Z,18.50
2022-11-14T00:39:01.635Z,16.90
2022-11-14T00:44:27.881Z,19.83
2022-11-14T00:50:04.646Z,16.97
2022-11-14T00:55:29.115Z,17.13
2022-11-14T01:00:55.407Z,19.40
2022-11-14T01:06:21.863Z,18.73
2022-11-14T01:11:49.177Z,18.17
2022-11-14T01:17:17.883Z,39.90
2022-11-14T01:22:44.136Z,45.50
2022-11-14T01:28:11.006Z,42.67
2022-11-14T01:33:40.623Z,42.00
2022-11-14T01:39:23.353Z,45.63
2022-11-14T01:45:06.130Z,45.43
2022-11-14T01:50:31.395Z,43.80
2022-11-14T01:55:59.802Z,38.73
2022-11-14T02:01:25.659Z,38.07
2022-11-14T02:06:50.457Z,39.30
2022-11-14T02:12:35.374Z,34.83
2022-11-14T02:18:04.335Z,36.33
2022-11-14T02:23:41.050Z,35.47
2022-11-14T02:29:06.718Z,31.30
2022-11-14T02:34:40.767Z,33.63
2022-11-14T02:40:12.989Z,29.77
2022-11-14T02:45:46.189Z,30.57
2022-11-14T02:51:12.071Z,29.27
2022-11-14T02:56:46.340Z,28.17
2022-11-14T03:02:13.193Z,28.70
2022-11-14T03:07:37.625Z,29.10
2022-11-14T03:13:04.370Z,25.07
2022-11-14T03:18:27.559Z,27.43
2022-11-14T03:23:55.259Z,25.90
2022-11-14T03:29:31.779Z,28.10
2022-11-14T03:34:58.184Z,22.77
2022-11-14T03:40:23.507Z,20.37
2022-11-14T03:45:53.152Z,18.73
2022-11-14T03:51:18.964Z,19.47
2022-11-14T03:56:55.379Z,23.67
2022-11-14T04:02:40.898Z,26.70
2022-11-14T04:08:07.705Z,26.80
2022-11-14T04:13:36.025Z,26.83
2022-11-14T04:19:09.801Z,26.60
2022-11-14T04:24:36.803Z,25.53
2022-11-14T04:30:03.788Z,25.97
2022-11-14T04:35:32.192Z,23.77
2022-11-14T04:41:06.036Z,26.13
2022-11-14T04:46:32.655Z,25.63
2022-11-14T04:52:07.801Z,24.37
2022-11-14T04:57:34.072Z,27.33
2022-11-14T05:03:00.791Z,26.73
2022-11-14T05:08:37.478Z,24.90
2022-11-14T05:14:15.184Z,26.60
2022-11-14T05:25:38.409Z,22.17
2022-11-14T05:31:07.153Z,19.57
2022-11-14T05:36:33.864Z,21.60
2022-11-14T05:42:01.601Z,20.37
2022-11-14T05:47:24.051Z,19.63
2022-11-14T05:52:51.712Z,19.00
2022-11-14T05:58:19.131Z,20.13
2022-11-14T06:03:49.907Z,17.40
2022-11-14T06:09:21.503Z,18.50
2022-11-14T06:14:52.356Z,19.70
2022-11-14T06:20:19.525Z,20.47
2022-11-14T06:25:47.157Z,17.77
2022-11-14T06:31:25.954Z,18.53
2022-11-14T06:36:50.952Z,16.93
2022-11-14T06:42:15.086Z,24.67
2022-11-14T06:47:49.962Z,18.00
2022-11-14T06:53:24.267Z,23.23
2022-11-14T06:58:50.102Z,17.97
2022-11-14T07:04:19.682Z,17.77
2022-11-14T07:09:50.137Z,19.53
2022-11-14T07:15:22.901Z,20.17
2022-11-14T07:20:48.904Z,17.50
2022-11-14T07:26:14.744Z,21.10
2022-11-14T07:31:39.152Z,20.73
2022-11-14T07:37:09.766Z,22.00
2022-11-14T07:42:49.934Z,21.77
2022-11-14T07:48:13.056Z,22.83
2022-11-14T07:53:43.213Z,25.13
2022-11-14T07:59:08.146Z,23.33
2022-11-14T08:04:36.374Z,23.83
2022-11-14T08:10:03.856Z,25.13
2022-11-14T08:15:28.670Z,23.47
2022-11-14T08:20:52.732Z,23.13
2022-11-14T08:26:34.110Z,21.30
2022-11-14T08:32:00.129Z,19.47
2022-11-14T08:37:24.637Z,19.03
2022-11-14T08:42:50.381Z,18.40
2022-11-14T08:48:17.001Z,19.00
2022-11-14T08:53:40.290Z,17.37
2022-11-14T08:59:16.628Z,20.17
2022-11-14T09:04:46.885Z,15.57
2022-11-14T09:10:14.286Z,16.50
2022-11-14T09:15:40.242Z,17.20
2022-11-14T09:21:06.175Z,18.20
2022-11-14T09:26:34.470Z,15.20
2022-11-14T09:32:02.847Z,16.20
2022-11-14T09:37:33.296Z,15.33
2022-11-14T09:43:23.504Z,15.40
2022-11-14T09:48:54.038Z,13.73
2022-11-14T09:54:28.392Z,14.30
2022-11-14T09:59:51.846Z,18.83
2022-11-14T10:05:34.520Z,13.13
2022-11-14T10:11:02.294Z,14.73
2022-11-14T10:16:34.494Z,12.70
2022-11-14T10:22:20.743Z,13.93
2022-11-14T10:28:06.788Z,13.77
2022-11-14T10:33:46.172Z,14.00
2022-11-14T10:39:21.271Z,12.60
2022-11-14T10:44:51.843Z,13.37
2022-11-14T10:50:41.147Z,13.33
2022-11-14T10:56:15.171Z,15.13
2022-11-14T11:01:46.370Z,12.07
2022-11-14T11:08:10.307Z,13.85
2022-11-14T11:13:58.386Z,12.63
2022-11-14T11:19:44.656Z,11.30
2022-11-14T11:25:30.669Z,11.43
2022-11-14T11:31:06.060Z,10.45
2022-11-14T11:36:57.820Z,10.70
2022-11-14T11:43:06.208Z,8.50
2022-11-14T11:48:25.912Z,9.38
2022-11-14T11:54:02.010Z,9.95
2022-11-14T11:59:46.893Z,8.02
2022-11-14T12:05:18.966Z,10.85
2022-11-14T12:10:49.865Z,8.93
2022-11-14T12:16:24.927Z,7.72
2022-11-14T12:22:27.792Z,7.78
2022-11-14T12:28:19.903Z,8.68
2022-11-14T12:34:02.484Z,8.02
2022-11-14T12:39:36.378Z,7.38
2022-11-14T12:45:08.280Z,7.45
2022-11-14T12:50:58.092Z,7.93
2022-11-14T12:57:00.355Z,7.13
2022-11-14T13:02:44.757Z,7.07
2022-11-14T13:08:22.072Z,7.25
2022-11-14T13:14:19.660Z,8.15
2022-11-14T13:20:07.616Z,9.10
2022-11-14T13:25:33.684Z,7.15
2022-11-14T13:31:28.178Z,8.85
2022-11-14T13:37:20.040Z,11.55
2022-11-14T13:42:57.170Z,7.75
2022-11-14T13:49:07.774Z,7.10
2022-11-14T13:54:32.580Z,7.53
2022-11-14T14:00:07.630Z,7.65
2022-11-14T14:05:46.733Z,9.82
2022-11-14T14:11:32.064Z,8.65
2022-11-14T14:16:59.313Z,8.27
2022-11-14T14:22:39.873Z,6.90
2022-11-14T14:28:23.362Z,8.15
2022-11-14T14:33:47.224Z,6.85
2022-11-14T14:39:25.914Z,11.25
2022-11-14T14:45:15.007Z,9.07
2022-11-14T14:50:42.954Z,12.70
2022-11-14T14:56:12.157Z,8.23
2022-11-14T15:01:57.767Z,8.63
2022-11-14T15:07:27.002Z,9.10
2022-11-14T15:12:53.981Z,10.23
2022-11-14T15:18:28.567Z,9.93
2022-11-14T15:24:02.247Z,11.00
2022-11-14T15:29:34.725Z,8.93
2022-11-14T15:35:30.373Z,10.13
2022-11-14T15:41:22.420Z,8.33
2022-11-14T15:46:53.379Z,9.47
2022-11-14T15:52:34.872Z,12.17
2022-11-14T15:58:26.510Z,11.60
2022-11-14T16:03:57.405Z,10.23
2022-11-14T16:09:28.431Z,10.20
2022-11-14T16:15:01.613Z,9.37
2022-11-14T16:20:30.466Z,11.87
2022-11-14T16:26:03.016Z,12.20
2022-11-14T16:31:33.750Z,14.97
2022-11-14T16:37:10.359Z,13.77
2022-11-14T16:42:40.505Z,11.80
2022-11-14T16:48:21.786Z,12.23
2022-11-14T16:53:58.552Z,12.33
2022-11-14T16:59:28.545Z,19.50
2022-11-14T17:05:01.740Z,11.27
2022-11-14T17:10:47.668Z,11.43
2022-11-14T17:16:17.880Z,12.73
2022-11-14T17:21:54.781Z,12.87
2022-11-14T17:27:30.442Z,10.87
2022-11-14T17:33:00.255Z,10.23
2022-11-14T17:38:48.781Z,14.83
2022-11-14T17:44:17.068Z,13.70
2022-11-14T17:49:46.346Z,13.03
2022-11-14T17:55:13.539Z,12.50
2022-11-14T18:01:01.407Z,12.50
2022-11-14T18:06:38.361Z,12.00
2022-11-14T18:12:07.390Z,13.13
2022-11-14T18:17:57.375Z,14.13
2022-11-14T18:23:41.755Z,11.73
2022-11-14T18:29:17.056Z,11.07
2022-11-14T18:34:42.697Z,10.80
2022-11-14T18:40:16.559Z,10.40
2022-11-14T18:45:46.218Z,10.97
2022-11-14T18:51:17.961Z,10.83
2022-11-14T19:02:30.485Z,10.90
2022-11-14T19:07:54.524Z,10.50
2022-11-14T19:13:24.254Z,9.93
2022-11-14T19:18:56.072Z,10.43
2022-11-14T19:24:26.924Z,10.43
2022-11-14T19:29:58.619Z,10.00
2022-11-14T19:35:26.529Z,9.63
2022-11-14T19:40:51.614Z,9.43
2022-11-14T19:46:19.163Z,12.43
2022-11-14T19:51:50.617Z,13.23
2022-11-14T19:57:16.687Z,10.10
2022-11-14T20:02:44.853Z,12.70
2022-11-14T20:08:11.214Z,12.20
2022-11-14T20:13:39.445Z,12.13
2022-11-14T20:19:10.189Z,12.87
2022-11-14T20:31:03.222Z,15.40
2022-11-14T20:36:35.354Z,14.77
2022-11-14T20:42:32.962Z,14.23
2022-11-14T20:48:18.439Z,14.60
2022-11-14T20:53:50.121Z,14.80
2022-11-14T20:59:17.939Z,17.30
2022-11-14T21:04:40.742Z,16.40
2022-11-14T21:10:38.496Z,17.90
2022-11-14T21:16:03.638Z,20.00
2022-11-14T21:21:29.377Z,17.90
2022-11-14T21:27:15.624Z,17.33
2022-11-14T21:32:54.224Z,19.13
2022-11-14T21:38:22.110Z,17.53
2022-11-14T21:43:59.848Z,16.93
2022-11-14T21:49:49.796Z,14.57
2022-11-14T21:55:20.082Z,12.57
2022-11-14T22:00:54.999Z,11.53
2022-11-14T22:06:23.049Z,13.33
2022-11-14T22:11:54.493Z,12.23
2022-11-14T22:23:16.957Z,11.73
2022-11-14T22:28:51.860Z,11.57
2022-11-14T22:34:32.396Z,12.07
2022-11-14T22:39:58.657Z,10.70
2022-11-14T22:45:22.253Z,12.33
2022-11-14T22:50:56.634Z,13.00
2022-11-14T22:56:30.141Z,14.77
2022-11-14T23:01:57.521Z,13.43
2022-11-14T23:07:27.759Z,17.13
2022-11-14T23:13:04.353Z,14.70
2022-11-14T23:18:31.543Z,13.80
2022-11-14T23:24:05.859Z,15.50
2022-11-14T23:29:30.239Z,14.37
2022-11-14T23:34:53.404Z,12.57
2022-11-14T23:40:18.255Z,12.57
2022-11-14T23:45:48.439Z,12.80
2022-11-14T23:51:28.693Z,14.27
2022-11-14T23:56:53.401Z,10.70
